createdAt,value
2019-03-31T00:02:02.754Z,56104.62
2019-03-31T00:04:45.624Z,56127.23
2019-03-31T00:07:16.450Z,56134.43
2019-03-31T00:09:47.262Z,56137.52
2019-03-31T00:12:18.967Z,56129.29
2019-03-31T00:14:49.797Z,56145.75
2019-03-31T00:17:20.529Z,56096.39
2019-03-31T00:19:51.350Z,56133.41
2019-03-31T00:22:22.144Z,56134.43
2019-03-31T00:24:53.616Z,56121.07
2019-03-31T00:27:24.749Z,56137.52
2019-03-31T00:29:55.845Z,56122.09
2019-03-31T00:32:26.882Z,56103.59
2019-03-31T00:34:58.812Z,56129.29
2019-03-31T00:37:41.845Z,56114.90
2019-03-31T00:40:12.908Z,56112.84
2019-03-31T00:42:43.613Z,56131.35
2019-03-31T00:45:14.406Z,56127.23
2019-03-31T00:47:45.150Z,56156.03
2019-03-31T00:50:16.264Z,56129.29
2019-03-31T00:52:47.915Z,56148.83
2019-03-31T00:55:18.694Z,56164.25
2019-03-31T00:57:49.674Z,56111.81
2019-03-31T01:00:41.576Z,56126.21
2019-03-31T01:03:12.596Z,56088.16
2019-03-31T01:05:45.251Z,56138.55
2019-03-31T01:08:16.644Z,56125.18
2019-03-31T01:10:48.348Z,56149.86
2019-03-31T01:13:19.777Z,56124.15
2019-03-31T01:15:51.461Z,56145.75
2019-03-31T01:18:22.959Z,56121.07
2019-03-31T01:20:54.288Z,56145.75
2019-03-31T01:23:25.022Z,56143.69
2019-03-31T01:25:56.864Z,56150.89
2019-03-31T01:28:28.367Z,56148.83
2019-03-31T01:31:00.678Z,56145.75
2019-03-31T01:33:32.330Z,56132.38
2019-03-31T01:36:03.228Z,56142.66
2019-03-31T01:38:34.323Z,56142.66
2019-03-31T01:41:05.356Z,56138.55
2019-03-31T01:43:36.463Z,56135.46
2019-03-31T01:46:09.223Z,56152.94
2019-03-31T01:48:40.397Z,56170.42
2019-03-31T01:51:11.356Z,56139.57
2019-03-31T01:53:42.107Z,56139.57
2019-03-31T01:56:13.212Z,56140.61
2019-03-31T01:58:44.259Z,56168.37
2019-03-31T02:01:16.451Z,56152.94
2019-03-31T02:03:47.894Z,56148.83
2019-03-31T02:06:18.642Z,56157.05
2019-03-31T02:08:49.747Z,56143.69
2019-03-31T02:11:20.486Z,56161.17
2019-03-31T02:13:51.525Z,56137.52
2019-03-31T02:16:22.607Z,56135.46
2019-03-31T02:18:53.643Z,56159.11
2019-03-31T02:21:24.673Z,56122.09
2019-03-31T02:23:55.980Z,56178.65
2019-03-31T02:26:26.739Z,56155.00
2019-03-31T02:28:57.563Z,56141.63
2019-03-31T02:31:28.335Z,56170.42
2019-03-31T02:33:59.344Z,56140.61
2019-03-31T02:36:30.356Z,56146.77
2019-03-31T02:39:01.609Z,56161.17
2019-03-31T02:41:32.964Z,56140.61
2019-03-31T02:44:04.576Z,56145.75
2019-03-31T02:46:35.997Z,56176.59
2019-03-31T02:49:07.138Z,56130.32
2019-03-31T02:51:38.301Z,56178.65
2019-03-31T02:54:09.530Z,56186.87
2019-03-31T02:56:41.411Z,56145.75
2019-03-31T02:59:15.288Z,56145.75
2019-03-31T03:01:48.129Z,56153.97
2019-03-31T03:04:21.602Z,56187.90
2019-03-31T03:06:55.073Z,56168.37
2019-03-31T03:09:27.615Z,56168.37
2019-03-31T03:12:00.126Z,56148.83
2019-03-31T03:14:35.285Z,56158.09
2019-03-31T03:17:06.109Z,56168.37
2019-03-31T03:19:37.766Z,56155.00
2019-03-31T03:22:08.780Z,56168.37
2019-03-31T03:24:39.795Z,56165.28
2019-03-31T03:27:10.921Z,56148.83
2019-03-31T03:29:41.907Z,56141.63
2019-03-31T03:32:13.255Z,56158.09
2019-03-31T03:34:44.309Z,56157.05
2019-03-31T03:37:15.451Z,56164.25
2019-03-31T03:39:46.467Z,56174.54
2019-03-31T03:42:17.382Z,56183.79
2019-03-31T03:44:48.999Z,56190.99
2019-03-31T03:47:19.775Z,56162.20
2019-03-31T03:49:51.118Z,56205.38
2019-03-31T03:52:22.208Z,56179.68
2019-03-31T03:54:53.202Z,56179.68
2019-03-31T03:57:24.694Z,56147.80
2019-03-31T03:59:56.044Z,56142.66
2019-03-31T04:02:26.752Z,56149.86
2019-03-31T04:04:57.760Z,56172.48
2019-03-31T04:07:28.787Z,56170.42
2019-03-31T04:10:00.579Z,56180.71
2019-03-31T04:12:32.379Z,56149.86
2019-03-31T04:15:04.026Z,56162.20
2019-03-31T04:17:35.124Z,56155.00
2019-03-31T04:20:06.434Z,56168.37
2019-03-31T04:22:37.441Z,56176.59
2019-03-31T04:25:08.291Z,56151.91
2019-03-31T04:27:39.850Z,56143.69
2019-03-31T04:30:10.786Z,56166.31
2019-03-31T04:32:41.513Z,56149.86
2019-03-31T04:35:12.240Z,56180.71
2019-03-31T04:37:43.320Z,56153.97
2019-03-31T04:40:14.341Z,56164.25
2019-03-31T04:42:45.431Z,56147.80
2019-03-31T04:45:16.328Z,56167.34
2019-03-31T04:47:47.580Z,56162.20
2019-03-31T04:50:18.724Z,56149.86
2019-03-31T04:52:50.033Z,56178.65
2019-03-31T04:55:21.420Z,56144.71
2019-03-31T04:57:52.831Z,56168.37
2019-03-31T05:00:23.542Z,56180.71
2019-03-31T05:02:54.889Z,56186.87
2019-03-31T05:05:25.985Z,56185.85
2019-03-31T05:07:57.338Z,56137.52
2019-03-31T05:10:28.445Z,56160.14
2019-03-31T05:13:00.184Z,56123.12
2019-03-31T05:15:31.706Z,56111.81
2019-03-31T05:18:03.043Z,56149.86
2019-03-31T05:20:33.903Z,56174.54
2019-03-31T05:23:04.649Z,56177.62
2019-03-31T05:25:35.421Z,56136.49
2019-03-31T05:28:07.411Z,56162.20
2019-03-31T05:30:38.137Z,56149.86
2019-03-31T05:33:09.169Z,56166.31
2019-03-31T05:35:39.962Z,56137.52
2019-03-31T05:38:10.856Z,56145.75
2019-03-31T05:40:41.836Z,56159.11
2019-03-31T05:43:13.251Z,56134.43
2019-03-31T05:45:44.153Z,56177.62
2019-03-31T05:48:15.284Z,56176.59
2019-03-31T05:50:46.336Z,56193.05
2019-03-31T05:53:17.160Z,56182.76
2019-03-31T05:55:47.901Z,56165.28
2019-03-31T05:58:18.644Z,56159.11
2019-03-31T06:00:50.880Z,56203.33
2019-03-31T06:03:22.027Z,56160.14
2019-03-31T06:05:53.362Z,56162.20
2019-03-31T06:08:24.104Z,56153.97
2019-03-31T06:10:55.195Z,56187.90
2019-03-31T06:13:26.072Z,56177.62
2019-03-31T06:15:56.972Z,56148.83
2019-03-31T06:18:27.731Z,56164.25
2019-03-31T06:20:58.931Z,56168.37
2019-03-31T06:23:29.850Z,56117.98
2019-03-31T06:26:01.049Z,56141.63
2019-03-31T06:28:32.741Z,56179.68
2019-03-31T06:31:04.106Z,56146.77
2019-03-31T06:33:35.228Z,56160.14
2019-03-31T06:36:06.750Z,56153.97
2019-03-31T06:38:37.779Z,56173.51
2019-03-31T06:41:09.498Z,56158.09
2019-03-31T06:43:40.497Z,56135.46
2019-03-31T06:46:11.799Z,56174.54
2019-03-31T06:48:43.618Z,56122.09
2019-03-31T06:51:17.054Z,56140.61
2019-03-31T06:53:48.193Z,56176.59
2019-03-31T06:56:18.998Z,56178.65
2019-03-31T06:58:49.716Z,56162.20
2019-03-31T07:01:21.100Z,56184.82
2019-03-31T07:03:51.992Z,56152.94
2019-03-31T07:06:24.177Z,56152.94
2019-03-31T07:08:54.994Z,56181.73
2019-03-31T07:11:25.843Z,56175.56
2019-03-31T07:13:56.892Z,56125.18
2019-03-31T07:16:28.570Z,56136.49
2019-03-31T07:19:00.353Z,56168.37
2019-03-31T07:21:31.100Z,56165.28
2019-03-31T07:24:02.487Z,56152.94
2019-03-31T07:26:33.256Z,56146.77
2019-03-31T07:29:04.440Z,56143.69
2019-03-31T07:31:35.534Z,56170.42
2019-03-31T07:34:06.367Z,56164.25
2019-03-31T07:36:37.693Z,56173.51
2019-03-31T07:39:09.271Z,56189.96
2019-03-31T07:41:40.845Z,56159.11
2019-03-31T07:44:15.383Z,56137.52
2019-03-31T07:46:46.464Z,56161.17
2019-03-31T07:49:17.509Z,56137.52
2019-03-31T07:51:48.520Z,56137.52
2019-03-31T07:54:19.596Z,56137.52
2019-03-31T07:56:50.843Z,56198.19
2019-03-31T07:59:21.630Z,56160.14
2019-03-31T08:01:53.624Z,56121.07
2019-03-31T08:04:25.081Z,56129.29
2019-03-31T08:06:56.147Z,56113.87
2019-03-31T08:09:26.893Z,56095.36
2019-03-31T08:11:59.387Z,56112.84
2019-03-31T08:14:31.401Z,56142.66
2019-03-31T08:17:02.926Z,56129.29
2019-03-31T08:19:34.808Z,56092.28
2019-03-31T08:22:05.834Z,56133.41
2019-03-31T08:24:46.179Z,56123.12
2019-03-31T08:27:17.803Z,56079.94
2019-03-31T08:29:59.902Z,56099.47
2019-03-31T08:32:22.479Z,56135.46
2019-03-31T08:34:53.605Z,56095.36
2019-03-31T08:37:24.696Z,56094.33
2019-03-31T08:39:57.042Z,56079.94
2019-03-31T08:42:28.928Z,56128.27
2019-03-31T08:45:00.372Z,56096.39
2019-03-31T08:47:31.434Z,56094.33
2019-03-31T08:50:02.841Z,56077.88
2019-03-31T08:52:34.043Z,56104.62
2019-03-31T08:55:06.083Z,56106.67
2019-03-31T08:57:47.757Z,56105.64
2019-03-31T09:00:28.746Z,56101.53
2019-03-31T09:03:00.454Z,56100.50
2019-03-31T09:05:33.633Z,56089.19
2019-03-31T09:08:09.135Z,56110.79
2019-03-31T09:10:41.116Z,56116.95
2019-03-31T09:13:12.590Z,56119.01
2019-03-31T09:15:43.785Z,56110.79
2019-03-31T09:18:15.134Z,56083.02
2019-03-31T09:20:46.630Z,56079.94
2019-03-31T09:23:17.422Z,56096.39
2019-03-31T09:25:48.627Z,56046.00
2019-03-31T09:28:19.392Z,56088.16
2019-03-31T09:30:50.433Z,56067.60
2019-03-31T09:33:21.248Z,56086.11
2019-03-31T09:35:52.400Z,56097.42
2019-03-31T09:38:23.277Z,56088.16
2019-03-31T09:40:54.817Z,56040.86
2019-03-31T09:43:25.566Z,56041.89
2019-03-31T09:45:56.717Z,56001.79
2019-03-31T09:48:27.683Z,56047.03
2019-03-31T09:50:58.657Z,56082.00
2019-03-31T09:53:30.069Z,56109.76
2019-03-31T09:56:02.072Z,56109.76
2019-03-31T09:58:33.114Z,56091.25
2019-03-31T10:01:07.930Z,56122.09
2019-03-31T10:03:38.412Z,56094.33
2019-03-31T10:06:10.969Z,56127.23
2019-03-31T10:08:42.326Z,56102.56
2019-03-31T10:11:13.751Z,56122.09
2019-03-31T10:13:44.815Z,56114.90
2019-03-31T10:16:15.654Z,56135.46
2019-03-31T10:18:49.693Z,56105.64
2019-03-31T10:21:20.503Z,56136.49
2019-03-31T10:23:54.274Z,56109.76
2019-03-31T10:26:31.736Z,56114.90
2019-03-31T10:28:58.242Z,56131.35
2019-03-31T10:31:30.506Z,56072.74
2019-03-31T10:34:05.907Z,56086.11
2019-03-31T10:36:44.497Z,56122.09
2019-03-31T10:39:12.327Z,56099.47
2019-03-31T10:41:46.320Z,56114.90
2019-03-31T10:44:19.974Z,56107.70
2019-03-31T10:46:51.492Z,56132.38
2019-03-31T10:49:22.830Z,56092.28
2019-03-31T10:51:54.488Z,56095.36
2019-03-31T10:54:25.753Z,56101.53
2019-03-31T10:56:56.776Z,56117.98
2019-03-31T10:59:30.199Z,56105.64
2019-03-31T11:02:10.461Z,56090.22
2019-03-31T11:04:42.737Z,56096.39
2019-03-31T11:07:15.632Z,56082.00
2019-03-31T11:09:47.868Z,56071.71
2019-03-31T11:13:18.186Z,56091.25
2019-03-31T11:15:52.494Z,56085.08
2019-03-31T11:18:23.873Z,56099.47
2019-03-31T11:20:55.444Z,56100.50
2019-03-31T11:23:28.197Z,56090.22
2019-03-31T11:25:59.282Z,56096.39
2019-03-31T11:28:30.397Z,56104.62
2019-03-31T11:31:01.107Z,56094.33
2019-03-31T11:33:31.856Z,56105.64
2019-03-31T11:36:02.608Z,56057.32
2019-03-31T11:38:34.218Z,56110.79
2019-03-31T11:41:05.336Z,56082.00
2019-03-31T11:43:36.538Z,56091.25
2019-03-31T11:46:07.225Z,56094.33
2019-03-31T11:48:37.949Z,56083.02
2019-03-31T11:51:09.066Z,56086.11
2019-03-31T11:53:40.301Z,56082.00
2019-03-31T11:56:11.276Z,56074.80
2019-03-31T11:58:41.959Z,56068.62
2019-03-31T12:01:12.813Z,56091.25
2019-03-31T12:03:43.504Z,56104.62
2019-03-31T12:06:14.262Z,56103.59
2019-03-31T12:08:44.932Z,56067.60
2019-03-31T12:11:16.223Z,56106.67
2019-03-31T12:13:46.884Z,56091.25
2019-03-31T12:16:17.902Z,56110.79
2019-03-31T12:18:48.560Z,56072.74
2019-03-31T12:21:19.272Z,56106.67
2019-03-31T12:23:49.957Z,56125.18
2019-03-31T12:26:20.756Z,56115.93
2019-03-31T12:28:51.457Z,56084.05
2019-03-31T12:31:22.671Z,56083.02
2019-03-31T12:33:53.403Z,56072.74
2019-03-31T12:36:24.207Z,56075.82
2019-03-31T12:38:54.924Z,56078.91
2019-03-31T12:41:25.628Z,56103.59
2019-03-31T12:43:56.294Z,56057.32
2019-03-31T12:46:26.952Z,56046.00
2019-03-31T12:48:58.141Z,56048.06
2019-03-31T12:51:28.802Z,56065.54
2019-03-31T12:53:59.498Z,56058.34
2019-03-31T12:56:30.265Z,56057.32
2019-03-31T12:59:00.971Z,56094.33
2019-03-31T13:01:31.659Z,56057.32
2019-03-31T13:04:02.653Z,56103.59
2019-03-31T13:06:33.348Z,56092.28
2019-03-31T13:09:05.702Z,56085.08
2019-03-31T13:11:36.489Z,56091.25
2019-03-31T13:14:07.217Z,56071.71
2019-03-31T13:16:37.911Z,56089.19
2019-03-31T13:19:09.066Z,56110.79
2019-03-31T13:21:40.610Z,56088.16
2019-03-31T13:24:11.305Z,56052.18
2019-03-31T13:26:42.001Z,56017.21
2019-03-31T13:29:12.747Z,56040.86
2019-03-31T13:31:43.479Z,56080.96
2019-03-31T13:34:15.548Z,56047.03
2019-03-31T13:36:46.879Z,56073.77
2019-03-31T13:39:17.718Z,56094.33
2019-03-31T13:41:48.504Z,56065.54
2019-03-31T13:44:19.216Z,56050.12
2019-03-31T13:46:49.909Z,56059.37
2019-03-31T13:49:20.608Z,56052.18
2019-03-31T13:51:51.273Z,56064.51
2019-03-31T13:54:22.229Z,56037.78
2019-03-31T13:56:53.885Z,56073.77
2019-03-31T13:59:25.295Z,56054.23
2019-03-31T14:01:56.011Z,56110.79
2019-03-31T14:04:26.707Z,56092.28
2019-03-31T14:06:57.329Z,56056.29
2019-03-31T14:09:28.391Z,56057.32
2019-03-31T14:11:59.070Z,56092.28
2019-03-31T14:14:30.120Z,56110.79
2019-03-31T14:17:00.801Z,56079.94
2019-03-31T14:19:31.486Z,56058.34
2019-03-31T14:22:02.185Z,56038.81
2019-03-31T14:24:33.152Z,56016.19
2019-03-31T14:27:04.233Z,56050.12
2019-03-31T14:29:34.896Z,56087.14
2019-03-31T14:32:05.615Z,56093.30
2019-03-31T14:34:36.618Z,56060.40
2019-03-31T14:37:07.411Z,56083.02
2019-03-31T14:39:38.700Z,56069.65
2019-03-31T14:42:10.052Z,56097.42
2019-03-31T14:44:40.881Z,56046.00
2019-03-31T14:47:12.648Z,56037.78
2019-03-31T14:49:43.692Z,56027.50
2019-03-31T14:52:26.789Z,56055.26
2019-03-31T14:54:46.941Z,56070.68
2019-03-31T14:57:17.758Z,56069.65
2019-03-31T14:59:48.592Z,56048.06
2019-03-31T15:02:19.762Z,56052.18
2019-03-31T15:04:50.893Z,56078.91
2019-03-31T15:07:21.639Z,56033.67
2019-03-31T15:09:52.385Z,56055.26
2019-03-31T15:12:23.239Z,56061.43
2019-03-31T15:14:54.373Z,56077.88
2019-03-31T15:17:26.352Z,56096.39
2019-03-31T15:19:57.310Z,56040.86
2019-03-31T15:22:28.048Z,56078.91
2019-03-31T15:24:58.776Z,56079.94
2019-03-31T15:27:29.766Z,56071.71
2019-03-31T15:30:00.545Z,56101.53
2019-03-31T15:32:31.271Z,56066.57
2019-03-31T15:35:02.424Z,56084.05
2019-03-31T15:37:33.257Z,56092.28
2019-03-31T15:40:04.400Z,56069.65
2019-03-31T15:42:35.152Z,56093.30
2019-03-31T15:45:06.489Z,56094.33
2019-03-31T15:47:37.463Z,56065.54
2019-03-31T15:50:09.352Z,56057.32
2019-03-31T15:52:40.005Z,56076.85
2019-03-31T15:55:11.267Z,56058.34
2019-03-31T15:57:41.940Z,56068.62
2019-03-31T16:00:15.137Z,56125.18
2019-03-31T16:02:46.399Z,56093.30
2019-03-31T16:05:17.687Z,56100.50
2019-03-31T16:07:48.138Z,56072.74
2019-03-31T16:10:18.583Z,56086.11
2019-03-31T16:12:48.543Z,56084.05
2019-03-31T16:15:18.913Z,56099.47
2019-03-31T16:17:49.103Z,56098.45
2019-03-31T16:20:19.273Z,56073.77
2019-03-31T16:22:49.624Z,56098.45
2019-03-31T16:25:24.945Z,56092.28
2019-03-31T16:27:55.119Z,56082.00
2019-03-31T16:30:25.174Z,56092.28
2019-03-31T16:32:55.563Z,56096.39
2019-03-31T16:35:25.927Z,56104.62
2019-03-31T16:37:55.839Z,56086.11
2019-03-31T16:40:25.729Z,56079.94
2019-03-31T16:42:56.090Z,56084.05
2019-03-31T16:45:25.987Z,56092.28
2019-03-31T16:47:56.946Z,56077.88
2019-03-31T16:50:26.776Z,56103.59
2019-03-31T16:52:56.882Z,56106.67
2019-03-31T16:55:26.753Z,56098.45
2019-03-31T16:57:56.695Z,56090.22
2019-03-31T17:00:26.689Z,56097.42
2019-03-31T17:02:56.546Z,56112.84
2019-03-31T17:05:27.041Z,56121.07
2019-03-31T17:07:57.191Z,56123.12
2019-03-31T17:10:27.341Z,56094.33
2019-03-31T17:12:58.078Z,56091.25
2019-03-31T17:15:28.167Z,56104.62
2019-03-31T17:17:58.341Z,56086.11
2019-03-31T17:20:28.359Z,56092.28
2019-03-31T17:22:58.444Z,56136.49
2019-03-31T17:25:28.608Z,56104.62
2019-03-31T17:27:58.861Z,56123.12
2019-03-31T17:30:28.839Z,56093.30
2019-03-31T17:32:58.729Z,56121.07
2019-03-31T17:35:28.948Z,56095.36
2019-03-31T17:37:59.151Z,56103.59
2019-03-31T17:40:29.617Z,56135.46
2019-03-31T17:42:59.610Z,56105.64
2019-03-31T17:45:30.802Z,56115.93
2019-03-31T17:48:00.898Z,56141.63
2019-03-31T17:50:30.816Z,56127.23
2019-03-31T17:53:03.836Z,56083.02
2019-03-31T17:55:33.018Z,56141.63
2019-03-31T17:58:02.895Z,56130.32
2019-03-31T18:00:32.763Z,56133.41
2019-03-31T18:03:02.642Z,56079.94
2019-03-31T18:05:32.536Z,56109.76
2019-03-31T18:08:02.809Z,56142.66
2019-03-31T18:10:32.632Z,56136.49
2019-03-31T18:13:02.509Z,56113.87
2019-03-31T18:15:32.382Z,56129.29
2019-03-31T18:18:02.244Z,56130.32
2019-03-31T18:20:32.133Z,56107.70
2019-03-31T18:23:02.028Z,56121.07
2019-03-31T18:25:31.939Z,56145.75
2019-03-31T18:28:01.855Z,56116.95
2019-03-31T18:30:31.752Z,56156.03
2019-03-31T18:33:01.626Z,56143.69
2019-03-31T18:35:31.442Z,56147.80
2019-03-31T18:38:01.286Z,56110.79
2019-03-31T18:40:35.174Z,56096.39
2019-03-31T18:43:02.983Z,56137.52
2019-03-31T18:45:32.891Z,56103.59
2019-03-31T18:48:03.232Z,56102.56
2019-03-31T18:50:33.097Z,56139.57
2019-03-31T18:53:03.727Z,56137.52
2019-03-31T18:55:51.533Z,56147.80
2019-03-31T18:58:30.203Z,56128.27
2019-03-31T19:01:25.032Z,56111.81
2019-03-31T19:04:08.614Z,56161.17
2019-03-31T19:06:43.995Z,56155.00
2019-03-31T19:09:32.705Z,56124.15
2019-03-31T19:12:20.433Z,56112.84
2019-03-31T19:15:27.444Z,56125.18
2019-03-31T19:18:13.450Z,56111.81
2019-03-31T19:21:11.085Z,56140.61
2019-03-31T19:23:46.983Z,56148.83
2019-03-31T19:26:48.253Z,56158.09
2019-03-31T19:29:33.628Z,56107.70
2019-03-31T19:32:13.166Z,56143.69
2019-03-31T19:35:01.331Z,56135.46
2019-03-31T19:37:49.556Z,56137.52
2019-03-31T19:40:28.759Z,56128.27
2019-03-31T19:43:16.631Z,56133.41
2019-03-31T19:46:05.698Z,56148.83
2019-03-31T19:48:43.566Z,56174.54
2019-03-31T19:51:31.498Z,56131.35
2019-03-31T19:54:25.453Z,56165.28
2019-03-31T19:57:20.771Z,56116.95
2019-03-31T20:00:03.505Z,56141.63
2019-03-31T20:02:58.139Z,56139.57
2019-03-31T20:05:41.539Z,56151.91
2019-03-31T20:08:35.542Z,56161.17
2019-03-31T20:11:18.817Z,56161.17
2019-03-31T20:14:05.924Z,56124.15
2019-03-31T20:16:52.049Z,56117.98
2019-03-31T20:19:29.129Z,56158.09
2019-03-31T20:22:05.560Z,56122.09
2019-03-31T20:24:52.920Z,56123.12
2019-03-31T20:27:45.383Z,56160.14
2019-03-31T20:30:29.192Z,56134.43
2019-03-31T20:33:15.311Z,56146.77
2019-03-31T20:35:58.559Z,56158.09
2019-03-31T20:38:38.996Z,56137.52
2019-03-31T20:41:17.913Z,56127.23
2019-03-31T20:43:57.527Z,56147.80
2019-03-31T20:46:27.705Z,56148.83
2019-03-31T20:48:57.600Z,56150.89
2019-03-31T20:51:27.532Z,56107.70
2019-03-31T20:53:57.416Z,56126.21
2019-03-31T20:56:27.315Z,56147.80
2019-03-31T20:58:57.162Z,56174.54
2019-03-31T21:01:27.026Z,56114.90
2019-03-31T21:03:56.967Z,56119.01
2019-03-31T21:06:26.854Z,56147.80
2019-03-31T21:08:56.776Z,56146.77
2019-03-31T21:11:26.645Z,56145.75
2019-03-31T21:13:57.169Z,56114.90
2019-03-31T21:16:27.739Z,56112.84
2019-03-31T21:18:57.821Z,56173.51
2019-03-31T21:21:27.959Z,56106.67
2019-03-31T21:23:57.848Z,56163.23
2019-03-31T21:26:27.737Z,56129.29
2019-03-31T21:28:57.918Z,56130.32
2019-03-31T21:31:28.123Z,56141.63
2019-03-31T21:33:57.978Z,56128.27
2019-03-31T21:36:28.203Z,56155.00
2019-03-31T21:38:58.122Z,56155.00
2019-03-31T21:41:28.003Z,56175.56
2019-03-31T21:43:58.130Z,56133.41
2019-03-31T21:46:29.023Z,56129.29
2019-03-31T21:48:58.885Z,56141.63
2019-03-31T21:51:28.733Z,56170.42
2019-03-31T21:53:58.926Z,56163.23
2019-03-31T21:56:28.821Z,56146.77
2019-03-31T21:58:58.697Z,56146.77
2019-03-31T22:01:28.582Z,56145.75
2019-03-31T22:03:58.420Z,56113.87
2019-03-31T22:06:28.687Z,56170.42
2019-03-31T22:08:58.582Z,56148.83
2019-03-31T22:11:28.413Z,56133.41
2019-03-31T22:13:58.595Z,56133.41
2019-03-31T22:16:28.462Z,56122.09
2019-03-31T22:18:58.330Z,56133.41
2019-03-31T22:21:28.222Z,56159.11
2019-03-31T22:23:58.379Z,56200.24
2019-03-31T22:26:28.595Z,56117.98
2019-03-31T22:28:58.494Z,56146.77
2019-03-31T22:31:28.406Z,56158.09
2019-03-31T22:33:58.677Z,56127.23
2019-03-31T22:36:28.751Z,56163.23
2019-03-31T22:38:58.621Z,56149.86
2019-03-31T22:41:28.839Z,56134.43
2019-03-31T22:43:59.048Z,56165.28
2019-03-31T22:46:28.905Z,56151.91
2019-03-31T22:48:58.801Z,56190.99
2019-03-31T22:51:28.970Z,56148.83
2019-03-31T22:53:58.899Z,56156.03
2019-03-31T22:56:28.813Z,56158.09
2019-03-31T22:58:58.738Z,56158.09
2019-03-31T23:01:28.649Z,56133.41
2019-03-31T23:03:58.887Z,56133.41
2019-03-31T23:06:28.796Z,56135.46
2019-03-31T23:08:58.717Z,56160.14
2019-03-31T23:11:28.567Z,56163.23
2019-03-31T23:13:58.801Z,56178.65
2019-03-31T23:16:28.643Z,56157.05
2019-03-31T23:18:58.891Z,56183.79
2019-03-31T23:21:28.742Z,56182.76
2019-03-31T23:23:58.918Z,56177.62
2019-03-31T23:26:29.097Z,56149.86
2019-03-31T23:28:59.049Z,56120.04
2019-03-31T23:31:29.240Z,56149.86
2019-03-31T23:33:59.157Z,56155.00
2019-03-31T23:36:29.023Z,56157.05
2019-03-31T23:38:58.913Z,56144.71
2019-03-31T23:41:28.775Z,56140.61
2019-03-31T23:43:58.978Z,56169.39
2019-03-31T23:46:29.181Z,56159.11
2019-03-31T23:48:59.696Z,56184.82
2019-03-31T23:51:29.638Z,56161.17
2019-03-31T23:53:59.471Z,56139.57
2019-03-31T23:56:29.614Z,56145.75
2019-03-31T23:58:59.478Z,56136.49
